Time;durP1;ratioP1;P1;durP2;ratioP2;P2;SDS_P1;SDS_P2;PMS_P1;PMS_P2;Temp;Humidity;BMP_temperature;BMP_pressure;BME280_temperature;BME280_humidity;BME280_pressure;Samples;Min_cycle;Max_cycle;Signal;HPM_P1;HPM_P2
2022/07/16 00:02:33;;;;;;;1.63;0.38;;;;;;;12.97;100.00;100703.53;7387617;19;20018;-80
2022/07/16 00:05:00;;;;;;;6.32;0.75;;;;;;;13.00;100.00;100717.31;7387175;19;20026;-80
2022/07/16 00:07:26;;;;;;;1.38;0.30;;;;;;;13.03;100.00;100715.59;7386753;19;20440;-80
2022/07/16 00:09:52;;;;;;;0.85;0.40;;;;;;;13.01;100.00;100712.50;7388110;19;20018;-80
2022/07/16 00:12:18;;;;;;;2.90;0.43;;;;;;;12.97;100.00;100721.06;7384904;19;20021;-80
2022/07/16 00:14:44;;;;;;;0.50;0.43;;;;;;;12.92;100.00;100710.53;7387881;19;20465;-80
2022/07/16 00:17:10;;;;;;;1.38;0.70;;;;;;;12.89;100.00;100717.03;7391702;19;20625;-80
2022/07/16 00:19:36;;;;;;;14.32;0.60;;;;;;;12.92;100.00;100707.72;7386781;19;20014;-80
2022/07/16 00:22:03;;;;;;;6.55;1.08;;;;;;;12.94;100.00;100717.19;7388529;19;20022;-80
2022/07/16 00:24:29;;;;;;;0.35;0.25;;;;;;;12.88;100.00;100716.28;7386461;19;20540;-80
2022/07/16 00:26:55;;;;;;;0.35;0.35;;;;;;;12.88;100.00;100716.28;7391415;19;20041;-80
2022/07/16 00:29:22;;;;;;;2.58;0.60;;;;;;;12.91;100.00;100726.50;7385268;19;20834;-79
2022/07/16 00:31:50;;;;;;;2.17;0.55;;;;;;;12.87;100.00;100730.72;7385804;19;20022;-80
2022/07/16 00:34:17;;;;;;;1.17;0.65;;;;;;;12.90;100.00;100740.97;7385067;19;20022;-80
2022/07/16 00:36:44;;;;;;;1.95;0.45;;;;;;;12.88;100.00;100737.88;7389306;19;20018;-80
2022/07/16 00:39:10;;;;;;;4.53;0.40;;;;;;;12.89;100.00;100733.81;7384117;19;20090;-80
2022/07/16 00:41:37;;;;;;;0.82;0.30;;;;;;;12.88;100.00;100743.47;7384987;19;20017;-81
2022/07/16 00:44:07;;;;;;;1.10;0.38;;;;;;;12.82;100.00;100734.16;7389340;19;20010;-82
2022/07/16 00:46:35;;;;;;;1.85;0.10;;;;;;;12.78;100.00;100751.09;7392855;19;20081;-83
2022/07/16 00:49:02;;;;;;;0.77;0.40;;;;;;;12.77;100.00;100748.75;7384681;19;20022;-80
2022/07/16 00:51:29;;;;;;;6.97;1.13;;;;;;;12.78;100.00;100751.09;7385372;19;20049;-79
2022/07/16 00:53:57;;;;;;;5.07;0.95;;;;;;;12.80;100.00;100747.81;7384910;19;20114;-82
2022/07/16 00:56:24;;;;;;;0.25;0.25;;;;;;;12.78;100.00;100739.13;7389807;19;20029;-82
2022/07/16 00:58:52;;;;;;;0.40;0.30;;;;;;;12.78;100.00;100745.50;7385057;19;20042;-82
2022/07/16 01:01:20;;;;;;;0.55;0.13;;;;;;;12.82;100.00;100740.50;7385609;19;20037;-81
2022/07/16 01:03:47;;;;;;;0.30;0.30;;;;;;;12.85;100.00;100747.19;7384985;19;20022;-82
2022/07/16 01:06:14;;;;;;;1.17;0.75;;;;;;;12.86;100.00;100743.16;7390606;19;20022;-82
2022/07/16 01:08:49;;;;;;;0.40;0.40;;;;;;;12.90;100.00;100746.56;7388312;19;20022;-82
2022/07/16 01:11:19;;;;;;;0.30;0.20;;;;;;;12.81;100.00;100729.81;7388027;19;20025;-82
2022/07/16 01:13:48;;;;;;;1.08;0.65;;;;;;;12.79;100.00;100727.50;7387335;19;20018;-82
2022/07/16 01:16:15;;;;;;;0.60;0.60;;;;;;;12.77;100.00;100732.78;7390244;19;20019;-82
2022/07/16 01:18:42;;;;;;;1.05;0.38;;;;;;;12.72;100.00;100729.81;7386590;19;20033;-81
2022/07/16 01:21:09;;;;;;;2.65;0.77;;;;;;;12.68;100.00;100729.22;7387394;19;20057;-82
2022/07/16 01:23:35;;;;;;;2.17;0.50;;;;;;;12.67;100.00;100728.44;7385463;19;20086;-82
2022/07/16 01:26:02;;;;;;;2.42;0.50;;;;;;;12.66;100.00;100731.69;7395959;19;20359;-82
2022/07/16 01:28:28;;;;;;;1.30;0.32;;;;;;;12.62;100.00;100731.09;7395129;19;20019;-81
2022/07/16 01:30:55;;;;;;;1.45;0.20;;;;;;;12.58;100.00;100730.47;7393493;19;20019;-81
2022/07/16 01:33:22;;;;;;;1.35;0.32;;;;;;;12.55;100.00;100725.81;7393279;19;20102;-82
2022/07/16 01:35:50;;;;;;;3.70;0.57;;;;;;;12.56;100.00;100728.13;7393164;19;20078;-82
2022/07/16 01:38:17;;;;;;;0.68;0.40;;;;;;;12.51;100.00;100725.22;7392648;19;20037;-82
2022/07/16 01:40:43;;;;;;;0.57;0.47;;;;;;;12.47;100.00;100730.19;7394535;19;20786;-82
2022/07/16 01:43:17;;;;;;;3.53;0.50;;;;;;;12.41;100.00;100734.84;7393379;19;20018;-82
2022/07/16 01:45:44;;;;;;;1.17;0.40;;;;;;;12.37;100.00;100737.00;7395101;19;20022;-82
2022/07/16 01:48:12;;;;;;;3.00;0.35;;;;;;;12.38;100.00;100750.53;7393724;19;20018;-82
2022/07/16 01:50:39;;;;;;;1.50;0.90;;;;;;;12.46;100.00;100750.97;7391136;19;20515;-81
2022/07/16 01:53:06;;;;;;;1.30;0.30;;;;;;;12.47;100.00;100747.72;7392099;19;20018;-82
2022/07/16 01:55:36;;;;;;;1.25;0.43;;;;;;;12.51;100.00;100747.56;7390091;19;20032;-81
2022/07/16 01:58:03;;;;;;;0.57;0.57;;;;;;;12.48;100.00;100754.06;7391686;19;20041;-81
2022/07/16 02:00:31;;;;;;;0.90;0.57;;;;;;;12.52;100.00;100761.06;7393106;19;20014;-81
2022/07/16 02:02:58;;;;;;;2.67;1.23;;;;;;;12.56;100.00;100760.91;7393423;19;20386;-82
2022/07/16 02:05:24;;;;;;;1.02;0.50;;;;;;;12.62;100.00;100759.81;7389305;19;20125;-82
2022/07/16 02:07:51;;;;;;;0.30;0.30;;;;;;;12.61;100.00;100757.47;7394060;19;20014;-81
2022/07/16 02:10:18;;;;;;;1.05;0.17;;;;;;;12.62;100.00;100759.03;7393159;19;20018;-82
2022/07/16 02:12:45;;;;;;;0.73;0.40;;;;;;;12.58;100.00;100759.19;7391854;19;20026;-81
2022/07/16 02:15:12;;;;;;;0.68;0.52;;;;;;;12.56;100.00;100752.53;7390423;19;20018;-82
2022/07/16 02:17:39;;;;;;;2.92;0.70;;;;;;;12.56;100.00;100760.91;7390506;19;20125;-81
2022/07/16 02:20:07;;;;;;;0.30;0.30;;;;;;;12.56;100.00;100752.53;7391044;19;20014;-81
2022/07/16 02:22:33;;;;;;;2.40;0.50;;;;;;;12.50;100.00;100752.38;7391120;19;20015;-82
2022/07/16 02:25:00;;;;;;;3.15;0.73;;;;;;;12.44;100.00;100740.28;7388653;19;20619;-81
2022/07/16 02:27:27;;;;;;;2.25;0.65;;;;;;;12.36;100.00;100747.41;7391884;19;20105;-82
2022/07/16 02:29:53;;;;;;;0.52;0.52;;;;;;;12.32;100.00;100752.38;7391734;19;20031;-81
2022/07/16 02:32:19;;;;;;;0.35;0.32;;;;;;;12.30;100.00;100754.84;7388901;19;20010;-81
2022/07/16 02:34:45;;;;;;;0.45;0.20;;;;;;;12.24;100.00;100751.13;7389768;19;20010;-81
2022/07/16 02:37:11;;;;;;;0.52;0.52;;;;;;;12.24;100.00;100739.19;7394406;19;20042;-81
2022/07/16 02:39:38;;;;;;;0.57;0.55;;;;;;;12.26;100.00;100742.31;7392257;19;20015;-81
2022/07/16 02:42:04;;;;;;;2.15;0.20;;;;;;;12.23;100.00;100738.41;7389668;19;20017;-81
2022/07/16 02:44:30;;;;;;;2.05;1.17;;;;;;;12.18;100.00;100731.44;7391548;19;20019;-81
2022/07/16 02:46:56;;;;;;;0.73;0.22;;;;;;;12.18;100.00;100737.03;7394662;19;20493;-82
2022/07/16 02:49:22;;;;;;;1.40;0.75;;;;;;;12.16;100.00;100739.50;7389648;19;20018;-80
2022/07/16 02:51:48;;;;;;;0.60;0.60;;;;;;;12.12;100.00;100744.47;7388792;19;20028;-82
2022/07/16 02:54:14;;;;;;;1.20;0.70;;;;;;;12.10;100.00;100735.78;7389151;19;20805;-81
2022/07/16 02:56:40;;;;;;;1.48;0.60;;;;;;;12.08;100.00;100745.88;7394556;19;20022;-82
2022/07/16 02:59:07;;;;;;;1.70;0.93;;;;;;;12.07;100.00;100744.28;7390964;19;20268;-81
2022/07/16 03:01:33;;;;;;;2.65;0.43;;;;;;;12.01;100.00;100723.81;7389010;19;20011;-81
2022/07/16 03:03:59;;;;;;;3.75;0.57;;;;;;;11.94;100.00;100738.84;7388867;19;20023;-81
2022/07/16 03:06:25;;;;;;;3.75;1.02;;;;;;;11.92;100.00;100735.75;7393462;19;20026;-81
2022/07/16 03:08:51;;;;;;;2.08;0.40;;;;;;;11.87;100.00;100733.56;7389205;19;20010;-81
2022/07/16 03:11:17;;;;;;;0.50;0.32;;;;;;;11.82;100.00;100731.41;7392594;19;20023;-81
2022/07/16 03:13:44;;;;;;;0.80;0.20;;;;;;;11.83;100.00;100730.16;7392341;19;20038;-81
2022/07/16 03:16:10;;;;;;;0.52;0.43;;;;;;;11.80;100.00;100728.28;7392391;19;20029;-82
2022/07/16 03:18:36;;;;;;;0.73;0.15;;;;;;;11.80;100.00;100727.53;7389704;19;20025;-81
2022/07/16 03:21:03;;;;;;;1.40;0.10;;;;;;;11.74;100.00;100730.13;7390699;19;20050;-81
2022/07/16 03:23:29;;;;;;;1.17;0.50;;;;;;;11.72;100.00;100729.81;7389958;19;20020;-81
2022/07/16 03:25:55;;;;;;;0.88;0.55;;;;;;;11.67;100.00;100730.44;7391533;19;20040;-81
2022/07/16 03:28:21;;;;;;;1.73;1.00;;;;;;;11.62;100.00;100728.22;7388604;19;20389;-81
2022/07/16 03:30:47;;;;;;;0.85;0.30;;;;;;;11.58;100.00;100721.25;7386664;19;20014;-81
2022/07/16 03:33:13;;;;;;;1.20;1.13;;;;;;;11.56;100.00;100724.50;7390288;19;20094;-81
2022/07/16 03:35:39;;;;;;;0.35;0.32;;;;;;;11.57;100.00;100719.69;7389098;19;20018;-81
2022/07/16 03:40:50;;;;;;;0.68;0.47;;;;;;;11.48;100.00;100706.50;7389284;19;20049;-82
2022/07/16 03:43:16;;;;;;;1.15;0.63;;;;;;;11.47;100.00;100721.69;7386847;19;20476;-81
2022/07/16 03:45:42;;;;;;;0.70;0.45;;;;;;;11.44;100.00;100714.22;7389009;19;20024;-81
2022/07/16 03:48:08;;;;;;;2.17;0.57;;;;;;;11.42;100.00;100708.34;7388711;19;20019;-81
2022/07/16 03:50:34;;;;;;;1.50;0.30;;;;;;;11.37;100.00;100706.94;7387433;19;20018;-82
2022/07/16 03:53:01;;;;;;;0.73;0.40;;;;;;;11.40;100.00;100705.22;7388848;19;20018;-81
2022/07/16 03:55:27;;;;;;;0.95;0.40;;;;;;;11.40;100.00;100710.81;7387943;19;20357;-81
2022/07/16 03:57:53;;;;;;;0.45;0.40;;;;;;;11.41;100.00;100712.38;7388546;19;20018;-82
2022/07/16 04:00:19;;;;;;;2.05;0.70;;;;;;;11.38;100.00;100718.88;7388355;19;20482;-81
2022/07/16 04:02:45;;;;;;;0.80;0.45;;;;;;;11.34;100.00;100707.88;7387821;19;20015;-81
2022/07/16 04:05:11;;;;;;;1.60;0.35;;;;;;;11.29;100.00;100713.25;7386697;19;20022;-82
2022/07/16 04:07:37;;;;;;;0.60;0.60;;;;;;;11.23;100.00;100717.88;7387992;19;20033;-81
2022/07/16 04:10:04;;;;;;;0.30;0.30;;;;;;;11.11;100.00;100716.00;7389103;19;20041;-82
2022/07/16 04:12:30;;;;;;;0.50;0.15;;;;;;;11.03;100.00;100714.69;7388691;19;20014;-81
2022/07/16 04:14:57;;;;;;;2.53;0.28;;;;;;;10.98;100.00;100723.66;7390947;19;20090;-81
2022/07/16 04:17:23;;;;;;;0.20;0.15;;;;;;;10.99;100.00;100714.06;7391365;19;20495;-81
2022/07/16 04:19:50;;;;;;;0.38;0.30;;;;;;;11.00;100.00;100724.00;7388897;19;20023;-80
2022/07/16 04:22:17;;;;;;;0.73;0.65;;;;;;;11.01;100.00;100725.53;7387387;19;20018;-81
2022/07/16 04:24:43;;;;;;;2.20;0.77;;;;;;;11.07;100.00;100727.25;7385653;19;20041;-82
2022/07/16 04:27:09;;;;;;;1.42;0.40;;;;;;;11.08;100.00;100733.63;7391803;19;20383;-81
2022/07/16 04:29:35;;;;;;;1.52;0.30;;;;;;;11.06;100.00;100742.44;7388092;19;20509;-82
2022/07/16 04:32:01;;;;;;;1.00;0.50;;;;;;;11.06;100.00;100738.88;7386361;19;20019;-81
2022/07/16 04:34:28;;;;;;;0.45;0.40;;;;;;;11.05;100.00;100737.31;7387556;19;20108;-82
2022/07/16 04:36:54;;;;;;;1.27;0.75;;;;;;;11.03;100.00;100743.34;7391709;19;20548;-81
2022/07/16 04:39:20;;;;;;;1.20;0.45;;;;;;;11.03;100.00;100737.00;7385884;19;20074;-81
2022/07/16 04:41:46;;;;;;;0.30;0.30;;;;;;;11.00;100.00;100737.91;7386692;19;20018;-81
2022/07/16 04:44:12;;;;;;;1.40;0.40;;;;;;;10.98;100.00;100738.34;7387939;19;20018;-80
2022/07/16 04:46:38;;;;;;;0.40;0.28;;;;;;;10.94;100.00;100737.72;7390161;19;20086;-81
2022/07/16 04:49:05;;;;;;;0.30;0.30;;;;;;;10.91;100.00;100740.66;7387732;19;20014;-81
2022/07/16 04:51:31;;;;;;;0.80;0.47;;;;;;;10.90;100.00;100744.66;7385448;19;20010;-81
2022/07/16 04:53:57;;;;;;;1.48;0.55;;;;;;;10.89;100.00;100741.13;7385643;19;20026;-81
2022/07/16 04:56:24;;;;;;;0.63;0.52;;;;;;;10.94;100.00;100748.09;7390449;19;20022;-80
2022/07/16 04:58:50;;;;;;;1.95;0.68;;;;;;;10.98;100.00;100738.34;7386142;19;20073;-81
2022/07/16 05:01:16;;;;;;;2.50;0.40;;;;;;;11.04;100.00;100730.19;7394988;19;20341;-80
2022/07/16 05:03:42;;;;;;;0.25;0.17;;;;;;;11.13;100.00;100747.72;7394487;19;20022;-81
2022/07/16 05:06:08;;;;;;;1.00;0.40;;;;;;;11.19;100.00;100745.91;7396564;19;20019;-81
2022/07/16 05:08:35;;;;;;;3.28;0.85;;;;;;;11.23;100.00;100746.53;7392914;19;20010;-81
2022/07/16 05:11:01;;;;;;;4.15;0.38;;;;;;;11.26;100.00;100744.84;7394510;19;20022;-81
2022/07/16 05:13:27;;;;;;;0.77;0.28;;;;;;;11.31;100.00;100752.59;7393598;19;20014;-81
2022/07/16 05:15:53;;;;;;;0.65;0.43;;;;;;;11.37;100.00;100751.53;7393270;19;20018;-81
2022/07/16 05:18:19;;;;;;;0.82;0.50;;;;;;;11.42;100.00;100748.16;7394229;19;20022;-82
2022/07/16 05:20:45;;;;;;;2.40;0.50;;;;;;;11.49;100.00;100744.31;7394915;19;20524;-82
2022/07/16 05:23:11;;;;;;;0.65;0.65;;;;;;;11.57;100.00;100742.78;7392829;19;20021;-82
2022/07/16 05:25:37;;;;;;;1.42;0.85;;;;;;;11.66;100.00;100745.59;7393073;19;20098;-85
2022/07/16 05:28:04;;;;;;;1.05;0.47;;;;;;;11.78;100.00;100753.09;7398906;19;20021;-84
2022/07/16 05:30:30;;;;;;;2.42;0.60;;;;;;;11.90;100.00;100749.41;7398109;19;20094;-81
2022/07/16 05:32:56;;;;;;;2.88;0.50;;;;;;;11.96;100.00;100750.34;7396573;19;20464;-83
2022/07/16 05:35:22;;;;;;;1.17;0.52;;;;;;;12.11;100.00;100753.28;7395446;19;20518;-83
2022/07/16 05:37:48;;;;;;;0.43;0.43;;;;;;;12.26;100.00;100753.47;7396945;19;20018;-84
2022/07/16 05:40:15;;;;;;;1.55;0.73;;;;;;;12.43;100.00;100746.34;7398563;19;20025;-84
2022/07/16 05:42:41;;;;;;;0.20;0.20;;;;;;;12.60;100.00;100758.72;7399432;19;20413;-84
2022/07/16 05:45:08;;;;;;;0.85;0.55;;;;;;;12.82;100.00;100762.13;7399175;19;20657;-84
2022/07/16 05:47:36;;;;;;;2.30;0.52;;;;;;;13.02;100.00;100765.16;7398637;19;20086;-84
2022/07/16 05:50:03;;;;;;;0.82;0.35;;;;;;;13.13;100.00;100754.28;7396726;19;20022;-84
2022/07/16 05:52:30;;;;;;;0.50;0.43;;;;;;;13.28;100.00;100754.38;7396047;19;20027;-84
2022/07/16 05:54:56;;;;;;;0.43;0.20;;;;;;;13.44;100.00;100760.38;7395824;19;20018;-84
2022/07/16 05:57:22;;;;;;;1.23;0.17;;;;;;;13.57;100.00;100760.94;7401935;19;20018;-83
2022/07/16 05:59:48;;;;;;;0.45;0.38;;;;;;;13.66;100.00;100758.06;7395439;19;20022;-82
2022/07/16 06:02:14;;;;;;;0.40;0.22;;;;;;;13.71;100.00;100759.47;7394522;19;20031;-82
2022/07/16 06:04:41;;;;;;;1.40;0.50;;;;;;;13.73;100.00;100759.75;7392189;19;20042;-82
2022/07/16 06:07:07;;;;;;;9.63;0.20;;;;;;;13.74;100.00;100764.13;7399173;19;20370;-83
2022/07/16 06:09:33;;;;;;;0.63;0.50;;;;;;;13.82;100.00;100770.16;7393052;19;20070;-82
2022/07/16 06:11:59;;;;;;;0.10;0.10;;;;;;;13.91;100.00;100772.88;7393522;19;20041;-81
2022/07/16 06:14:25;;;;;;;0.40;0.10;;;;;;;14.07;100.00;100775.28;7391826;19;20015;-83
2022/07/16 06:16:51;;;;;;;0.30;0.25;;;;;;;14.34;100.00;100783.50;7398424;19;20392;-82
2022/07/16 06:19:18;;;;;;;2.42;0.85;;;;;;;14.64;100.00;100785.09;7393977;19;20031;-82
2022/07/16 06:21:44;;;;;;;2.00;0.43;;;;;;;14.88;100.00;100783.00;7392572;19;20015;-83
2022/07/16 06:24:10;;;;;;;0.10;0.10;;;;;;;15.13;100.00;100785.25;7390000;19;20059;-84
2022/07/16 06:26:36;;;;;;;6.32;0.40;;;;;;;15.40;100.00;100789.00;7394516;19;20043;-82
2022/07/16 06:29:02;;;;;;;1.27;0.22;;;;;;;15.53;100.00;100793.06;7392358;19;20010;-83
2022/07/16 06:31:28;;;;;;;0.40;0.30;;;;;;;15.52;100.00;100783.09;7390371;19;20015;-83
2022/07/16 06:33:54;;;;;;;1.15;0.50;;;;;;;15.46;100.00;100776.63;7389852;19;20101;-82
2022/07/16 06:36:21;;;;;;;1.85;1.42;;;;;;;15.42;100.00;100775.25;7396038;19;20022;-83
2022/07/16 06:38:47;;;;;;;1.15;0.40;;;;;;;15.40;100.00;100778.53;7392151;19;20027;-83
2022/07/16 06:41:16;;;;;;;3.47;1.33;;;;;;;15.38;100.00;100769.03;7392757;19;20018;-82
2022/07/16 06:43:43;;;;;;;0.88;0.30;;;;;;;15.33;100.00;100772.56;7391256;19;20014;-82
2022/07/16 06:46:09;;;;;;;0.73;0.10;;;;;;;15.38;100.00;100777.47;7394500;19;20015;-82
2022/07/16 06:48:35;;;;;;;1.25;0.55;;;;;;;15.44;100.00;100778.38;7393194;19;20431;-82
2022/07/16 06:51:01;;;;;;;3.17;0.57;;;;;;;15.47;100.00;100772.56;7390682;19;20021;-82
2022/07/16 06:53:27;;;;;;;1.75;0.63;;;;;;;15.50;100.00;100779.22;7390539;19;20021;-83
2022/07/16 06:55:54;;;;;;;0.20;0.20;;;;;;;15.51;100.00;100783.56;7392342;19;20022;-82
2022/07/16 06:58:20;;;;;;;1.45;0.75;;;;;;;15.52;100.00;100790.75;7393158;19;20018;-83
2022/07/16 07:00:46;;;;;;;3.22;0.80;;;;;;;15.51;100.00;100789.97;7393344;19;20010;-83
2022/07/16 07:03:12;;;;;;;3.20;0.43;;;;;;;15.52;100.00;100790.75;7392667;19;20019;-82
2022/07/16 07:05:38;;;;;;;1.45;0.32;;;;;;;15.60;100.00;100803.13;7392086;19;20022;-83
2022/07/16 07:08:04;;;;;;;0.65;0.22;;;;;;;15.75;100.00;100813.06;7391049;19;20041;-83
2022/07/16 07:10:31;;;;;;;1.77;0.43;;;;;;;16.02;100.00;100806.31;7389862;19;20082;-82
2022/07/16 07:12:57;;;;;;;0.52;0.10;;;;;;;16.34;100.00;100805.19;7391186;19;20023;-82
2022/07/16 07:15:23;;;;;;;0.65;0.20;;;;;;;16.66;100.00;100811.72;7392196;19;20031;-82
2022/07/16 07:17:50;;;;;;;2.80;0.80;;;;;;;16.77;100.00;100813.88;7391054;19;20447;-83
2022/07/16 07:20:16;;;;;;;0.80;0.50;;;;;;;16.76;100.00;100818.75;7390607;19;20126;-83
2022/07/16 07:22:43;;;;;;;1.02;0.55;;;;;;;16.81;100.00;100820.06;7391504;19;20018;-83
2022/07/16 07:25:09;;;;;;;0.10;0.08;;;;;;;16.75;100.00;100819.22;7402946;19;20017;-81
2022/07/16 07:27:35;;;;;;;1.08;0.20;;;;;;;16.74;100.00;100824.09;7406472;19;20019;-82
2022/07/16 07:30:03;;;;;;;2.20;0.77;;;;;;;16.72;100.00;100823.81;7396527;19;20108;-81
2022/07/16 07:32:29;;;;;;;2.78;0.30;;;;;;;16.70;100.00;100817.16;7388280;19;20090;-81
2022/07/16 07:34:56;;;;;;;1.30;0.30;;;;;;;16.72;100.00;100823.06;7387840;19;20724;-80
2022/07/16 07:37:22;;;;;;;2.15;0.10;;;;;;;16.88;100.00;100819.63;7394004;19;20018;-80
2022/07/16 07:39:48;;;;;;;0.20;0.10;;;;;;;17.02;100.00;100824.41;7387727;19;20022;-80
2022/07/16 07:42:14;;;;;;;2.00;0.50;;;;;;;17.25;100.00;100828.97;7387634;19;20018;-80
2022/07/16 07:44:40;;;;;;;0.22;0.22;;;;;;;17.47;100.00;100823.53;7391225;19;20019;-80
2022/07/16 07:47:06;;;;;;;0.30;0.30;;;;;;;17.76;100.00;100830.94;7391770;19;20019;-80
2022/07/16 07:49:33;;;;;;;1.27;0.30;;;;;;;18.04;100.00;100829.84;7387174;19;20021;-80
2022/07/16 07:51:59;;;;;;;0.20;0.20;;;;;;;18.13;100.00;100831.69;7385509;19;20038;-80
2022/07/16 07:54:25;;;;;;;0.60;0.25;;;;;;;18.04;100.00;100834.72;7387867;19;20022;-80
2022/07/16 07:56:51;;;;;;;0.70;0.40;;;;;;;17.90;100.00;100842.06;7391612;19;20371;-80
2022/07/16 07:59:18;;;;;;;3.90;0.40;;;;;;;17.67;100.00;100840.34;7387619;19;20112;-81
2022/07/16 08:01:44;;;;;;;0.73;0.28;;;;;;;17.57;100.00;100841.03;7387091;19;20018;-80
2022/07/16 08:04:10;;;;;;;1.10;0.35;;;;;;;17.58;100.00;100836.97;7384941;19;20376;-81
2022/07/16 08:06:37;;;;;;;0.47;0.10;;;;;;;17.57;100.00;100832.56;7388584;19;20019;-81
2022/07/16 08:09:03;;;;;;;0.40;0.20;;;;;;;17.65;100.00;100837.25;7386670;19;20019;-81
2022/07/16 08:11:29;;;;;;;0.47;0.25;;;;;;;17.74;100.00;100828.63;7388562;19;20014;-80
2022/07/16 08:13:56;;;;;;;1.15;0.43;;;;;;;17.97;100.00;100835.97;7388280;19;20022;-80
2022/07/16 08:16:22;;;;;;;1.15;0.10;;;;;;;18.38;100.00;100833.63;7388561;19;20027;-80
2022/07/16 08:18:48;;;;;;;1.65;0.20;;;;;;;18.88;100.00;100833.81;7388129;19;20045;-80
2022/07/16 08:21:14;;;;;;;0.50;0.40;;;;;;;19.31;100.00;100838.00;7386267;19;20104;-80
2022/07/16 08:26:25;;;;;;;1.23;0.20;;;;;;;19.63;100.00;100839.31;7389938;19;20025;-80
2022/07/16 08:28:52;;;;;;;0.52;0.30;;;;;;;19.60;100.00;100837.50;7385591;19;20132;-81
2022/07/16 08:31:19;;;;;;;0.25;0.10;;;;;;;19.58;100.00;100840.09;7387373;19;20026;-80
2022/07/16 08:33:45;;;;;;;0.22;0.00;;;;;;;19.53;100.00;100843.69;7383638;19;20483;-80
2022/07/16 08:36:11;;;;;;;1.35;0.45;;;;;;;19.37;100.00;100841.63;7387969;19;20027;-80
2022/07/16 08:38:37;;;;;;;0.10;0.10;;;;;;;19.16;100.00;100848.78;7388558;19;20011;-81
2022/07/16 08:41:05;;;;;;;4.00;0.47;;;;;;;18.98;100.00;100854.09;7385346;19;20046;-81
2022/07/16 08:43:32;;;;;;;0.20;0.00;;;;;;;19.03;100.00;100856.97;7387738;19;20022;-80
2022/07/16 08:45:59;;;;;;;1.38;0.35;;;;;;;19.14;100.00;100862.63;7388059;19;20107;-81
2022/07/16 08:48:25;;;;;;;0.90;0.10;;;;;;;19.22;100.00;100860.06;7387992;19;20383;-81
2022/07/16 08:50:53;;;;;;;1.23;0.08;;;;;;;19.31;100.00;100865.47;7387261;19;20014;-81
2022/07/16 08:53:23;;;;;;;1.35;0.10;;;;;;;19.49;100.00;100868.59;7386411;19;20386;-81
2022/07/16 08:55:52;;;;;;;1.25;0.17;;;;;;;19.75;100.00;100859.84;7386093;19;20361;-80
2022/07/16 08:58:18;;;;;;;0.25;0.10;;;;;;;20.21;100.00;100860.06;7385684;19;20026;-80
2022/07/16 09:00:45;;;;;;;0.20;0.00;;;;;;;20.34;100.00;100859.53;7386220;19;20027;-81
2022/07/16 09:03:15;;;;;;;0.73;0.38;;;;;;;20.31;100.00;100863.41;7387543;19;20011;-81
2022/07/16 09:05:42;;;;;;;0.90;0.00;;;;;;;20.15;100.00;100856.47;7385697;19;20031;-82
2022/07/16 09:08:08;;;;;;;4.85;0.25;;;;;;;20.17;100.00;100861.59;7385254;19;20018;-80
2022/07/16 09:10:37;;;;;;;0.55;0.20;;;;;;;20.21;100.00;100850.81;7387859;19;20043;-80
2022/07/16 09:13:05;;;;;;;4.32;0.73;;;;;;;20.28;100.00;100844.63;7384878;19;20045;-81
2022/07/16 09:15:37;;;;;;;1.48;0.55;;;;;;;20.44;100.00;100849.47;7386989;19;20084;-81
2022/07/16 09:18:17;;;;;;;4.60;0.30;;;;;;;20.57;100.00;100848.91;7386509;19;20015;-81
2022/07/16 09:20:48;;;;;;;0.50;0.10;;;;;;;20.67;100.00;100848.09;7384918;19;20078;-83
2022/07/16 09:23:35;;;;;;;0.28;0.00;;;;;;;20.65;100.00;100841.41;7383934;19;20255;-82
2022/07/16 09:26:10;;;;;;;0.10;0.10;;;;;;;20.73;100.00;100839.56;7389280;19;20022;-82
2022/07/16 09:28:47;;;;;;;3.55;0.20;;;;;;;20.79;100.00;100846.72;7384137;19;20022;-79
2022/07/16 09:31:40;;;;;;;0.70;0.30;;;;;;;20.93;100.00;100842.03;7384891;19;20051;-82
2022/07/16 09:34:08;;;;;;;1.02;0.52;;;;;;;20.97;100.00;100834.78;7384692;19;20352;-83
2022/07/16 09:36:34;;;;;;;0.63;0.25;;;;;;;21.04;100.00;100842.78;7390233;19;20026;-82
2022/07/16 09:39:01;;;;;;;0.98;0.20;;;;;;;21.17;100.00;100844.22;7386906;19;20013;-83
2022/07/16 09:41:40;;;;;;;3.50;0.20;;;;;;;21.11;100.00;100836.53;7384438;19;20031;-86
2022/07/16 09:44:16;;;;;;;0.52;0.10;;;;;;;21.18;100.00;100834.44;7389068;19;20042;-83
2022/07/16 09:46:59;;;;;;;0.60;0.43;;;;;;;21.25;100.00;100837.47;7396068;19;20026;-85
2022/07/16 09:49:26;;;;;;;1.65;0.85;;;;;;;20.94;100.00;100838.66;7393146;19;20039;-85
2022/07/16 09:51:53;;;;;;;1.27;0.47;;;;;;;20.93;100.00;100847.69;7390794;19;20018;-84
2022/07/16 09:54:34;;;;;;;0.55;0.10;;;;;;;21.08;100.00;100845.31;7390469;19;20014;-81
2022/07/16 09:57:11;;;;;;;0.22;0.00;;;;;;;21.16;100.00;100854.78;7396496;19;20352;-87
2022/07/16 09:59:39;;;;;;;2.63;0.13;;;;;;;21.21;100.00;100842.66;7391632;19;20022;-88
2022/07/16 10:02:06;;;;;;;1.63;0.22;;;;;;;21.39;100.00;100852.56;7393777;19;20010;-86
2022/07/16 10:04:32;;;;;;;0.43;0.10;;;;;;;21.31;100.00;100848.78;7386261;19;20019;-82
2022/07/16 10:06:58;;;;;;;3.00;0.15;;;;;;;21.31;100.00;100851.59;7394496;19;20369;-81
2022/07/16 10:09:25;;;;;;;0.73;0.10;;;;;;;21.37;100.00;100841.78;7392713;19;20011;-81
2022/07/16 10:11:53;;;;;;;0.30;0.00;;;;;;;21.49;100.00;100848.09;7394337;19;20026;-82
2022/07/16 10:14:21;;;;;;;0.77;0.10;;;;;;;21.57;100.00;100849.84;7390976;19;20499;-81
2022/07/16 10:16:47;;;;;;;0.30;0.10;;;;;;;21.64;100.00;100845.66;7391649;19;20022;-81
2022/07/16 10:19:14;;;;;;;0.25;0.00;;;;;;;21.67;100.00;100847.44;7391832;19;20021;-82
2022/07/16 10:22:01;;;;;;;0.90;0.10;;;;;;;21.80;100.00;100841.91;7392524;19;20034;-81
2022/07/16 10:24:43;;;;;;;1.25;0.55;;;;;;;22.00;100.00;100840.72;7390441;19;20022;-82
2022/07/16 10:27:30;;;;;;;2.38;0.10;;;;;;;22.01;100.00;100836.56;7394990;19;20607;-82
2022/07/16 10:30:18;;;;;;;0.32;0.15;;;;;;;21.93;100.00;100830.72;7391290;19;20438;-82
2022/07/16 10:33:00;;;;;;;0.45;0.10;;;;;;;22.04;100.00;100839.13;7389769;19;20400;-82
2022/07/16 10:35:32;;;;;;;2.03;0.20;;;;;;;22.19;100.00;100836.66;7388844;19;20019;-81
2022/07/16 10:38:09;;;;;;;0.35;0.10;;;;;;;22.30;100.00;100841.44;7391823;19;20050;-82
2022/07/16 10:40:37;;;;;;;0.50;0.10;;;;;;;22.33;100.00;100835.44;7391794;19;20352;-81
2022/07/16 10:43:11;;;;;;;0.25;0.10;;;;;;;22.23;100.00;100825.75;7391091;19;20027;-82
2022/07/16 10:45:57;;;;;;;0.68;0.20;;;;;;;22.45;100.00;100830.41;7388498;19;20018;-81
2022/07/16 10:48:28;;;;;;;1.75;0.10;;;;;;;22.55;100.00;100828.72;7390217;19;20090;-81
2022/07/16 10:51:32;;;;;;;1.30;0.28;;;;;;;22.76;100.00;100841.13;7390113;19;20422;-81
2022/07/16 10:54:01;;;;;;;0.20;0.10;;;;;;;22.79;100.00;100840.06;7384584;19;20019;-81
2022/07/16 10:56:42;;;;;;;1.45;0.40;;;;;;;22.82;100.00;100841.06;7389044;19;20035;-81
2022/07/16 10:59:10;;;;;;;1.55;0.25;;;;;;;22.89;100.00;100829.09;7389089;19;20503;-81
2022/07/16 11:01:39;;;;;;;1.45;0.55;;;;;;;22.94;100.00;100837.53;7390382;19;20033;-80
2022/07/16 11:04:08;;;;;;;3.83;0.10;;;;;;;23.04;100.00;100841.50;7387705;19;20145;-81
2022/07/16 11:06:34;;;;;;;1.70;0.35;;;;;;;23.11;100.00;100846.56;7393135;19;20086;-81
2022/07/16 11:09:04;;;;;;;0.20;0.00;;;;;;;23.16;100.00;100842.88;7390544;19;20401;-81
2022/07/16 11:11:42;;;;;;;0.28;0.20;;;;;;;23.22;100.00;100851.31;7389177;19;20337;-81
2022/07/16 11:14:09;;;;;;;2.28;0.32;;;;;;;23.24;100.00;100843.00;7389567;19;20496;-80
2022/07/16 11:16:47;;;;;;;2.38;0.45;;;;;;;23.42;100.00;100841.47;7392541;19;20018;-80
2022/07/16 11:19:13;;;;;;;0.17;0.10;;;;;;;23.34;100.00;100836.44;7388305;19;20053;-80
2022/07/16 11:21:51;;;;;;;0.20;0.10;;;;;;;23.47;100.00;100835.72;7390891;19;20022;-80
2022/07/16 11:24:17;;;;;;;1.05;0.00;;;;;;;23.59;100.00;100839.91;7386974;19;20023;-80
2022/07/16 11:26:43;;;;;;;0.73;0.17;;;;;;;23.62;100.00;100844.50;7394262;19;20015;-80